createdAt,value
2019-05-18T00:00:45.880Z,100136.68
2019-05-18T00:03:12.051Z,100140.09
2019-05-18T00:05:37.606Z,100149.80
2019-05-18T00:08:03.487Z,100146.88
2019-05-18T00:10:28.935Z,100150.53
2019-05-18T00:12:55.107Z,100143.91
2019-05-18T00:15:21.657Z,100155.17
2019-05-18T00:17:48.072Z,100153.41
2019-05-18T00:20:14.373Z,100149.55
2019-05-18T00:22:40.928Z,100152.41
2019-05-18T00:25:06.552Z,100150.19
2019-05-18T00:27:32.150Z,100153.08
2019-05-18T00:29:57.824Z,100147.42
2019-05-18T00:32:24.367Z,100151.38
2019-05-18T00:34:49.822Z,100150.67
2019-05-18T00:37:15.966Z,100148.25
2019-05-18T00:39:41.372Z,100147.23
2019-05-18T00:42:07.473Z,100148.53
2019-05-18T00:44:33.053Z,100136.64
2019-05-18T00:46:58.619Z,100132.16
2019-05-18T00:49:24.054Z,100131.63
2019-05-18T00:51:51.316Z,100139.73
2019-05-18T00:54:20.146Z,100132.06
2019-05-18T00:56:45.981Z,100126.09
2019-05-18T00:59:15.890Z,100126.70
2019-05-18T01:01:38.942Z,100125.31
2019-05-18T01:04:04.497Z,100117.30
2019-05-18T01:06:31.068Z,100116.98
2019-05-18T01:08:57.039Z,100119.62
2019-05-18T01:11:22.603Z,100117.25
2019-05-18T01:13:48.259Z,100114.54
2019-05-18T01:16:14.483Z,100115.20
2019-05-18T01:18:40.191Z,100106.27
2019-05-18T01:21:06.324Z,100112.02
2019-05-18T01:23:31.774Z,100112.06
2019-05-18T01:25:57.530Z,100114.69
2019-05-18T01:28:23.116Z,100109.33
2019-05-18T01:30:48.900Z,100109.78
2019-05-18T01:33:14.742Z,100114.63
2019-05-18T01:35:40.444Z,100104.83
2019-05-18T01:38:06.631Z,100112.83
2019-05-18T01:40:32.024Z,100107.02
2019-05-18T01:42:58.005Z,100113.31
2019-05-18T01:45:23.575Z,100108.88
2019-05-18T01:47:50.605Z,100107.85
2019-05-18T01:50:17.577Z,100118.72
2019-05-18T01:52:44.855Z,100114.98
2019-05-18T01:55:11.207Z,100117.23
2019-05-18T01:57:37.028Z,100116.41
2019-05-18T02:00:02.714Z,100115.42
2019-05-18T02:02:28.586Z,100114.11
2019-05-18T02:04:53.955Z,100108.67
2019-05-18T02:07:19.399Z,100113.34
2019-05-18T02:09:45.206Z,100116.53
2019-05-18T02:12:10.671Z,100120.68
2019-05-18T02:14:36.106Z,100119.62
2019-05-18T02:17:01.577Z,100110.17
2019-05-18T02:19:27.008Z,100116.53
2019-05-18T02:21:52.473Z,100111.11
2019-05-18T02:24:17.916Z,100112.52
2019-05-18T02:26:46.607Z,100107.14
2019-05-18T02:29:11.994Z,100097.92
2019-05-18T02:31:37.354Z,100102.33
2019-05-18T02:34:03.331Z,100098.90
2019-05-18T02:36:29.026Z,100099.36
2019-05-18T02:38:54.551Z,100090.41
2019-05-18T02:41:20.411Z,100096.09
2019-05-18T02:43:46.382Z,100097.14
2019-05-18T02:46:12.101Z,100098.42
2019-05-18T02:48:48.849Z,100095.92
2019-05-18T02:51:04.737Z,100098.58
2019-05-18T02:53:30.165Z,100089.53
2019-05-18T02:55:55.598Z,100089.78
2019-05-18T02:58:21.341Z,100099.56
2019-05-18T03:00:46.775Z,100083.66
2019-05-18T03:03:12.231Z,100092.72
2019-05-18T03:05:37.916Z,100093.11
2019-05-18T03:08:03.493Z,100099.62
2019-05-18T03:10:29.278Z,100097.53
2019-05-18T03:12:54.992Z,100101.66
2019-05-18T03:15:20.418Z,100103.53
2019-05-18T03:17:47.445Z,100100.00
2019-05-18T03:20:13.600Z,100105.67
2019-05-18T03:22:39.043Z,100100.05
2019-05-18T03:25:04.530Z,100103.18
2019-05-18T03:27:29.968Z,100096.43
2019-05-18T03:29:55.445Z,100088.19
2019-05-18T03:32:21.085Z,100092.80
2019-05-18T03:34:46.469Z,100093.09
2019-05-18T03:37:11.813Z,100101.97
2019-05-18T03:39:37.509Z,100101.97
2019-05-18T03:42:02.953Z,100098.58
2019-05-18T03:44:28.347Z,100100.75
2019-05-18T03:46:53.803Z,100101.58
2019-05-18T03:49:26.640Z,100109.83
2019-05-18T03:51:46.316Z,100105.91
2019-05-18T03:54:11.656Z,100099.27
2019-05-18T03:56:37.159Z,100100.17
2019-05-18T03:59:02.460Z,100090.38
2019-05-18T04:01:27.897Z,100096.29
2019-05-18T04:03:53.351Z,100091.90
2019-05-18T04:06:19.056Z,100101.45
2019-05-18T04:08:44.661Z,100101.27
2019-05-18T04:11:10.133Z,100096.30
2019-05-18T04:13:35.580Z,100097.52
2019-05-18T04:16:01.031Z,100100.91
2019-05-18T04:18:26.482Z,100105.37
2019-05-18T04:20:55.330Z,100104.09
2019-05-18T04:23:20.769Z,100096.43
2019-05-18T04:25:46.434Z,100102.02
2019-05-18T04:28:11.925Z,100102.21
2019-05-18T04:30:37.267Z,100099.27
2019-05-18T04:33:02.831Z,100096.97
2019-05-18T04:35:28.179Z,100104.09
2019-05-18T04:37:53.914Z,100104.33
2019-05-18T04:40:19.353Z,100103.58
2019-05-18T04:42:44.745Z,100106.14
2019-05-18T04:45:10.470Z,100121.17
2019-05-18T04:47:36.203Z,100110.62
2019-05-18T04:50:05.662Z,100109.68
2019-05-18T04:52:28.888Z,100109.30
2019-05-18T04:54:54.511Z,100109.85
2019-05-18T04:57:19.967Z,100105.61
2019-05-18T04:59:45.424Z,100106.25
2019-05-18T05:02:10.880Z,100102.63
2019-05-18T05:04:36.320Z,100104.66
2019-05-18T05:07:01.816Z,100102.61
2019-05-18T05:09:27.179Z,100101.97
2019-05-18T05:11:52.641Z,100107.27
2019-05-18T05:14:18.078Z,100104.41
2019-05-18T05:16:44.082Z,100111.13
2019-05-18T05:19:09.459Z,100115.08
2019-05-18T05:21:40.289Z,100108.37
2019-05-18T05:24:06.118Z,100107.62
2019-05-18T05:26:31.582Z,100105.49
2019-05-18T05:28:57.016Z,100106.35
2019-05-18T05:31:23.095Z,100108.41
2019-05-18T05:33:48.656Z,100107.77
2019-05-18T05:36:14.103Z,100114.33
2019-05-18T05:38:39.559Z,100110.54
2019-05-18T05:41:05.016Z,100113.55
2019-05-18T05:43:30.469Z,100114.58
2019-05-18T05:45:55.752Z,100118.42
2019-05-18T05:48:21.226Z,100120.32
2019-05-18T05:50:46.636Z,100126.02
2019-05-18T05:53:12.065Z,100116.80
2019-05-18T05:55:37.406Z,100122.00
2019-05-18T05:58:03.109Z,100121.32
2019-05-18T06:00:28.585Z,100124.66
2019-05-18T06:02:54.304Z,100123.68
2019-05-18T06:05:20.031Z,100129.27
2019-05-18T06:07:45.331Z,100127.89
2019-05-18T06:10:10.990Z,100129.36
2019-05-18T06:12:43.702Z,100127.35
2019-05-18T06:15:10.532Z,100125.77
2019-05-18T06:17:39.115Z,100127.98
2019-05-18T06:20:05.048Z,100131.22
2019-05-18T06:22:34.693Z,100133.91
2019-05-18T06:25:00.283Z,100135.98
2019-05-18T06:27:30.168Z,100134.91
2019-05-18T06:29:55.633Z,100132.98
2019-05-18T06:32:24.647Z,100132.98
2019-05-18T06:34:50.357Z,100135.52
2019-05-18T06:37:15.838Z,100138.06
2019-05-18T06:39:41.301Z,100137.66
2019-05-18T06:42:07.024Z,100145.36
2019-05-18T06:44:32.475Z,100143.25
2019-05-18T06:46:57.875Z,100134.34
2019-05-18T06:49:23.267Z,100140.11
2019-05-18T06:51:48.984Z,100135.41
2019-05-18T06:54:20.848Z,100150.72
2019-05-18T06:56:47.080Z,100154.55
2019-05-18T06:59:15.881Z,100158.19
2019-05-18T07:01:40.181Z,100150.11
2019-05-18T07:04:05.621Z,100149.66
2019-05-18T07:06:31.086Z,100144.63
2019-05-18T07:08:56.598Z,100154.09
2019-05-18T07:11:22.371Z,100159.95
2019-05-18T07:13:47.783Z,100154.95
2019-05-18T07:16:13.231Z,100154.81
2019-05-18T07:18:38.975Z,100154.73
2019-05-18T07:21:04.706Z,100147.03
2019-05-18T07:23:32.287Z,100151.50
2019-05-18T07:25:57.735Z,100149.19
2019-05-18T07:28:23.261Z,100155.06
2019-05-18T07:30:48.750Z,100154.91
2019-05-18T07:33:14.042Z,100160.50
2019-05-18T07:35:39.418Z,100168.11
2019-05-18T07:38:04.860Z,100173.11
2019-05-18T07:40:30.313Z,100169.75
2019-05-18T07:42:55.773Z,100170.89
2019-05-18T07:45:21.941Z,100171.16
2019-05-18T07:47:47.708Z,100170.31
2019-05-18T07:50:13.144Z,100173.13
2019-05-18T07:52:38.637Z,100176.72
2019-05-18T07:55:05.473Z,100179.59
2019-05-18T07:57:30.857Z,100177.25
2019-05-18T07:59:56.374Z,100184.86
2019-05-18T08:02:21.810Z,100187.34
2019-05-18T08:04:47.274Z,100181.47
2019-05-18T08:07:12.758Z,100180.84
2019-05-18T08:09:38.470Z,100185.01
2019-05-18T08:12:03.942Z,100184.49
2019-05-18T08:14:29.916Z,100176.09
2019-05-18T08:16:55.423Z,100182.27
2019-05-18T08:19:21.227Z,100176.28
2019-05-18T08:21:53.215Z,100177.85
2019-05-18T08:24:13.968Z,100177.59
2019-05-18T08:26:39.433Z,100172.74
2019-05-18T08:29:04.911Z,100169.86
2019-05-18T08:31:30.372Z,100171.59
2019-05-18T08:33:55.799Z,100174.81
2019-05-18T08:36:21.255Z,100180.13
2019-05-18T08:38:46.709Z,100180.21
2019-05-18T08:41:12.013Z,100179.03
2019-05-18T08:43:37.459Z,100178.45
2019-05-18T08:46:02.946Z,100180.09
2019-05-18T08:48:28.415Z,100175.00
2019-05-18T08:50:53.773Z,100170.20
2019-05-18T08:53:19.243Z,100176.69
2019-05-18T08:55:44.796Z,100178.45
2019-05-18T08:58:10.253Z,100178.92
2019-05-18T09:00:35.743Z,100177.84
2019-05-18T09:03:01.193Z,100177.16
2019-05-18T09:05:26.554Z,100172.60
2019-05-18T09:07:52.292Z,100174.31
2019-05-18T09:10:18.604Z,100169.70
2019-05-18T09:12:55.263Z,100169.11
2019-05-18T09:15:21.415Z,100171.43
2019-05-18T09:17:46.990Z,100167.42
2019-05-18T09:20:13.144Z,100167.89
2019-05-18T09:22:38.665Z,100164.63
2019-05-18T09:25:04.251Z,100169.69
2019-05-18T09:27:29.963Z,100179.03
2019-05-18T09:29:55.650Z,100181.35
2019-05-18T09:32:21.134Z,100175.05
2019-05-18T09:34:46.572Z,100178.83
2019-05-18T09:37:12.010Z,100176.98
2019-05-18T09:39:37.505Z,100183.70
2019-05-18T09:42:02.971Z,100170.81
2019-05-18T09:44:28.455Z,100176.05
2019-05-18T09:46:54.106Z,100182.23
2019-05-18T09:49:19.577Z,100176.73
2019-05-18T09:51:45.046Z,100175.95
2019-05-18T09:54:10.938Z,100177.43
2019-05-18T09:56:36.415Z,100178.83
2019-05-18T09:59:02.060Z,100172.91
2019-05-18T10:01:28.013Z,100169.55
2019-05-18T10:03:53.985Z,100170.23
2019-05-18T10:06:19.852Z,100167.39
2019-05-18T10:08:45.648Z,100170.59
2019-05-18T10:11:11.596Z,100173.56
2019-05-18T10:13:37.109Z,100169.25
2019-05-18T10:16:03.188Z,100170.73
2019-05-18T10:18:29.447Z,100169.47
2019-05-18T10:20:55.061Z,100172.23
2019-05-18T10:23:22.272Z,100177.31
2019-05-18T10:25:48.183Z,100168.23
2019-05-18T10:28:14.200Z,100168.14
2019-05-18T10:30:39.839Z,100161.45
2019-05-18T10:33:05.726Z,100166.06
2019-05-18T10:35:32.068Z,100166.36
2019-05-18T10:37:57.707Z,100160.44
2019-05-18T10:40:23.318Z,100169.75
2019-05-18T10:42:49.077Z,100159.67
2019-05-18T10:45:15.210Z,100156.34
2019-05-18T10:47:40.889Z,100157.45
2019-05-18T10:50:06.868Z,100159.19
2019-05-18T10:52:32.764Z,100155.84
2019-05-18T10:54:58.258Z,100162.58
2019-05-18T10:57:23.743Z,100157.73
2019-05-18T10:59:49.481Z,100156.92
2019-05-18T11:02:15.217Z,100163.42
2019-05-18T11:04:40.711Z,100159.33
2019-05-18T11:07:06.231Z,100162.14
2019-05-18T11:09:31.828Z,100157.67
2019-05-18T11:11:57.593Z,100159.37
2019-05-18T11:14:23.040Z,100158.23
2019-05-18T11:16:48.733Z,100152.39
2019-05-18T11:19:14.450Z,100152.37
2019-05-18T11:21:40.012Z,100148.44
2019-05-18T11:24:05.574Z,100156.55
2019-05-18T11:26:31.182Z,100146.16
2019-05-18T11:28:57.182Z,100153.16
2019-05-18T11:31:22.656Z,100155.64
2019-05-18T11:33:48.495Z,100151.44
2019-05-18T11:36:14.307Z,100144.69
2019-05-18T11:38:39.809Z,100147.53
2019-05-18T11:41:05.712Z,100143.66
2019-05-18T11:43:31.167Z,100139.21
2019-05-18T11:45:57.223Z,100140.33
2019-05-18T11:48:22.743Z,100137.83
2019-05-18T11:50:48.312Z,100143.97
2019-05-18T11:53:14.304Z,100137.55
2019-05-18T11:55:39.977Z,100142.30
2019-05-18T11:58:05.669Z,100131.39
2019-05-18T12:00:31.481Z,100130.83
2019-05-18T12:02:57.289Z,100128.84
2019-05-18T12:05:22.802Z,100123.25
2019-05-18T12:07:50.184Z,100128.00
2019-05-18T12:10:18.373Z,100121.44
2019-05-18T12:12:44.046Z,100119.27
2019-05-18T12:15:14.720Z,100116.73
2019-05-18T12:17:40.446Z,100117.92
2019-05-18T12:20:07.262Z,100119.29
2019-05-18T12:22:32.951Z,100111.13
2019-05-18T12:24:59.259Z,100111.63
2019-05-18T12:27:24.655Z,100114.25
2019-05-18T12:29:50.457Z,100115.69
2019-05-18T12:32:15.968Z,100114.79
2019-05-18T12:34:44.746Z,100117.93
2019-05-18T12:37:10.664Z,100120.45
2019-05-18T12:39:36.563Z,100121.80
2019-05-18T12:42:02.181Z,100122.63
2019-05-18T12:44:27.846Z,100117.34
2019-05-18T12:46:53.835Z,100117.38
2019-05-18T12:49:27.767Z,100115.30
2019-05-18T12:51:53.227Z,100112.48
2019-05-18T12:54:29.172Z,100110.83
2019-05-18T12:56:48.158Z,100109.56
2019-05-18T12:59:16.821Z,100109.47
2019-05-18T13:01:42.599Z,100104.31
2019-05-18T13:04:08.345Z,100103.86
2019-05-18T13:06:33.897Z,100100.95
2019-05-18T13:08:59.747Z,100100.75
2019-05-18T13:11:25.216Z,100094.36
2019-05-18T13:13:50.667Z,100100.29
2019-05-18T13:16:17.151Z,100091.30
2019-05-18T13:18:42.665Z,100091.02
2019-05-18T13:21:09.010Z,100091.86
2019-05-18T13:23:34.481Z,100090.34
2019-05-18T13:26:00.445Z,100083.02
2019-05-18T13:28:25.995Z,100082.97
2019-05-18T13:30:51.575Z,100080.50
2019-05-18T13:33:17.743Z,100079.76
2019-05-18T13:35:45.619Z,100082.05
2019-05-18T13:38:11.888Z,100073.09
2019-05-18T13:40:37.376Z,100076.59
2019-05-18T13:43:04.336Z,100070.06
2019-05-18T13:45:30.297Z,100077.19
2019-05-18T13:47:55.990Z,100071.23
2019-05-18T13:50:27.217Z,100065.08
2019-05-18T13:52:53.600Z,100059.34
2019-05-18T13:55:19.072Z,100056.35
2019-05-18T13:57:44.807Z,100061.95
2019-05-18T14:00:16.119Z,100060.49
2019-05-18T14:02:41.941Z,100059.22
2019-05-18T14:05:08.125Z,100056.26
2019-05-18T14:07:34.369Z,100058.56
2019-05-18T14:09:59.870Z,100054.15
2019-05-18T14:12:25.579Z,100057.31
2019-05-18T14:14:51.693Z,100057.66
2019-05-18T14:17:19.055Z,100057.74
2019-05-18T14:19:44.534Z,100056.36
2019-05-18T14:22:11.230Z,100055.11
2019-05-18T14:24:36.702Z,100056.52
2019-05-18T14:27:03.649Z,100053.63
2019-05-18T14:29:29.199Z,100056.78
2019-05-18T14:31:55.254Z,100063.91
2019-05-18T14:34:20.606Z,100055.26
2019-05-18T14:36:46.402Z,100060.89
2019-05-18T14:39:12.153Z,100063.87
2019-05-18T14:41:37.761Z,100066.81
2019-05-18T14:44:03.354Z,100070.83
2019-05-18T14:46:29.056Z,100066.14
2019-05-18T14:48:56.095Z,100062.81
2019-05-18T14:51:23.880Z,100065.84
2019-05-18T14:53:49.760Z,100065.84
2019-05-18T14:56:18.847Z,100065.34
2019-05-18T14:58:44.775Z,100063.27
2019-05-18T15:01:10.310Z,100067.19
2019-05-18T15:03:35.828Z,100062.36
2019-05-18T15:06:01.225Z,100062.39
2019-05-18T15:08:26.717Z,100064.20
2019-05-18T15:10:52.461Z,100060.80
2019-05-18T15:13:18.002Z,100060.38
2019-05-18T15:15:43.564Z,100058.58
2019-05-18T15:18:09.083Z,100062.91
2019-05-18T15:20:35.761Z,100062.48
2019-05-18T15:23:03.275Z,100057.48
2019-05-18T15:25:28.761Z,100060.73
2019-05-18T15:27:54.285Z,100055.61
2019-05-18T15:30:20.024Z,100055.49
2019-05-18T15:32:45.498Z,100048.48
2019-05-18T15:35:11.687Z,100048.25
2019-05-18T15:37:37.242Z,100046.89
2019-05-18T15:40:03.711Z,100047.23
2019-05-18T15:42:29.214Z,100048.55
2019-05-18T15:44:54.693Z,100046.67
2019-05-18T15:47:20.380Z,100046.83
2019-05-18T15:49:45.854Z,100046.47
2019-05-18T15:52:11.714Z,100048.12
2019-05-18T15:54:37.235Z,100050.81
2019-05-18T15:57:02.762Z,100053.00
2019-05-18T15:59:28.043Z,100053.37
2019-05-18T16:01:53.511Z,100054.03
2019-05-18T16:04:18.989Z,100050.63
2019-05-18T16:06:44.483Z,100053.06
2019-05-18T16:09:09.961Z,100057.32
2019-05-18T16:11:35.423Z,100053.00
2019-05-18T16:14:00.994Z,100060.75
2019-05-18T16:16:26.483Z,100058.48
2019-05-18T16:18:51.953Z,100065.23
2019-05-18T16:21:28.926Z,100066.06
2019-05-18T16:23:54.450Z,100079.90
2019-05-18T16:26:21.929Z,100075.44
2019-05-18T16:28:47.081Z,100079.41
2019-05-18T16:31:12.596Z,100078.94
2019-05-18T16:33:37.976Z,100072.76
2019-05-18T16:36:03.583Z,100077.87
2019-05-18T16:38:29.610Z,100082.40
2019-05-18T16:40:55.326Z,100080.73
2019-05-18T16:43:20.816Z,100087.16
2019-05-18T16:45:46.552Z,100088.84
2019-05-18T16:48:12.386Z,100095.84
2019-05-18T16:50:38.188Z,100096.02
2019-05-18T16:53:04.320Z,100088.50
2019-05-18T16:55:30.112Z,100086.28
2019-05-18T16:57:55.533Z,100097.77
2019-05-18T17:00:21.354Z,100106.46
2019-05-18T17:02:46.788Z,100109.98
2019-05-18T17:05:14.412Z,100112.41
2019-05-18T17:07:39.969Z,100114.71
2019-05-18T17:10:05.861Z,100111.66
2019-05-18T17:12:32.070Z,100100.25
2019-05-18T17:14:57.795Z,100096.30
2019-05-18T17:17:26.068Z,100104.09
2019-05-18T17:19:51.769Z,100108.84
2019-05-18T17:22:17.216Z,100106.11
2019-05-18T17:24:42.961Z,100104.09
2019-05-18T17:27:08.659Z,100105.77
2019-05-18T17:29:34.181Z,100102.45
2019-05-18T17:31:59.940Z,100100.20
2019-05-18T17:34:25.419Z,100106.91
2019-05-18T17:36:52.572Z,100107.27
2019-05-18T17:39:18.078Z,100102.81
2019-05-18T17:41:43.814Z,100108.67
2019-05-18T17:44:10.333Z,100111.50
2019-05-18T17:46:36.809Z,100108.16
2019-05-18T17:49:02.338Z,100110.07
2019-05-18T17:51:27.856Z,100108.40
2019-05-18T17:53:55.372Z,100117.08
2019-05-18T17:56:20.855Z,100118.18
2019-05-18T17:58:46.479Z,100119.28
2019-05-18T18:01:13.305Z,100125.74
2019-05-18T18:03:38.911Z,100119.84
2019-05-18T18:06:04.382Z,100123.16
2019-05-18T18:08:29.953Z,100127.91
2019-05-18T18:11:03.344Z,100123.52
2019-05-18T18:13:31.814Z,100123.78
2019-05-18T18:16:06.793Z,100127.98
2019-05-18T18:18:34.896Z,100119.88
2019-05-18T18:21:00.185Z,100121.55
2019-05-18T18:23:27.117Z,100126.55
2019-05-18T18:25:52.589Z,100133.83
2019-05-18T18:28:18.037Z,100139.07
2019-05-18T18:30:43.557Z,100134.11
2019-05-18T18:33:09.017Z,100133.28
2019-05-18T18:35:34.496Z,100148.08
2019-05-18T18:37:59.944Z,100150.52
2019-05-18T18:40:25.465Z,100149.12
2019-05-18T18:42:50.914Z,100149.12
2019-05-18T18:45:17.663Z,100147.98
2019-05-18T18:47:43.115Z,100151.38
2019-05-18T18:50:09.243Z,100146.91
2019-05-18T18:52:34.705Z,100144.67
2019-05-18T18:55:00.157Z,100141.86
2019-05-18T18:57:39.934Z,100144.35
2019-05-18T18:59:56.829Z,100151.30
2019-05-18T19:02:20.689Z,100147.92
2019-05-18T19:04:46.108Z,100148.12
2019-05-18T19:07:11.530Z,100149.93
2019-05-18T19:09:36.978Z,100147.55
2019-05-18T19:12:02.530Z,100155.06
2019-05-18T19:14:28.445Z,100156.45
2019-05-18T19:16:54.049Z,100155.87
2019-05-18T19:19:19.818Z,100161.43
2019-05-18T19:21:45.445Z,100158.87
2019-05-18T19:24:11.138Z,100166.37
2019-05-18T19:26:36.828Z,100161.91
2019-05-18T19:29:02.277Z,100168.09
2019-05-18T19:31:28.318Z,100160.52
2019-05-18T19:33:54.189Z,100163.55
2019-05-18T19:36:20.134Z,100170.93
2019-05-18T19:38:45.684Z,100175.02
2019-05-18T19:41:11.228Z,100170.37
2019-05-18T19:43:36.714Z,100177.02
2019-05-18T19:46:02.409Z,100180.03
2019-05-18T19:48:27.971Z,100181.61
2019-05-18T19:50:57.932Z,100176.98
2019-05-18T19:53:24.738Z,100179.54
2019-05-18T19:55:50.214Z,100170.93
2019-05-18T19:58:24.039Z,100167.64
2019-05-18T20:00:49.782Z,100170.97
2019-05-18T20:03:15.363Z,100173.13
2019-05-18T20:05:40.998Z,100172.89
2019-05-18T20:08:06.899Z,100172.55
2019-05-18T20:10:32.441Z,100173.36
2019-05-18T20:13:04.494Z,100172.52
2019-05-18T20:15:30.367Z,100176.00
2019-05-18T20:17:56.393Z,100173.24
2019-05-18T20:20:25.552Z,100170.98
2019-05-18T20:22:51.024Z,100161.73
2019-05-18T20:25:16.595Z,100167.62
2019-05-18T20:27:41.942Z,100169.55
2019-05-18T20:30:09.052Z,100164.91
2019-05-18T20:32:35.102Z,100166.53
2019-05-18T20:35:00.748Z,100165.63
2019-05-18T20:37:26.483Z,100168.25
2019-05-18T20:39:52.247Z,100173.44
2019-05-18T20:42:17.798Z,100168.12
2019-05-18T20:44:43.491Z,100163.98
2019-05-18T20:47:09.047Z,100160.97
2019-05-18T20:49:42.541Z,100164.55
2019-05-18T20:52:08.327Z,100170.47
2019-05-18T20:54:33.763Z,100171.39
2019-05-18T20:56:59.292Z,100167.20
2019-05-18T20:59:24.856Z,100171.06
2019-05-18T21:01:51.020Z,100172.46
2019-05-18T21:04:16.797Z,100187.26
2019-05-18T21:06:45.301Z,100203.04
2019-05-18T21:09:09.897Z,100205.56
2019-05-18T21:11:35.440Z,100201.52
2019-05-18T21:14:00.909Z,100203.56
2019-05-18T21:16:33.740Z,100197.03
2019-05-18T21:19:00.822Z,100197.02
2019-05-18T21:21:28.441Z,100190.61
2019-05-18T21:23:56.410Z,100198.98
2019-05-18T21:26:22.185Z,100197.31
2019-05-18T21:28:56.430Z,100195.10
2019-05-18T21:31:15.317Z,100200.11
2019-05-18T21:33:40.885Z,100195.06
2019-05-18T21:36:06.451Z,100193.86
2019-05-18T21:38:31.958Z,100194.55
2019-05-18T21:40:57.762Z,100200.22
2019-05-18T21:43:23.553Z,100198.57
2019-05-18T21:45:49.095Z,100206.50
2019-05-18T21:48:14.657Z,100201.86
2019-05-18T21:50:40.151Z,100198.66
2019-05-18T21:53:05.708Z,100208.14
2019-05-18T21:55:31.229Z,100199.53
2019-05-18T21:57:56.716Z,100205.62
2019-05-18T22:00:24.364Z,100207.98
2019-05-18T22:02:49.895Z,100203.05
2019-05-18T22:05:15.711Z,100206.52
2019-05-18T22:07:41.190Z,100208.87
2019-05-18T22:10:07.662Z,100205.77
2019-05-18T22:12:33.144Z,100208.73
2019-05-18T22:14:58.665Z,100216.09
2019-05-18T22:17:24.142Z,100219.98
2019-05-18T22:19:49.674Z,100220.89
2019-05-18T22:22:15.195Z,100221.16
2019-05-18T22:24:40.719Z,100214.04
2019-05-18T22:27:06.188Z,100212.14
2019-05-18T22:29:31.677Z,100211.91
2019-05-18T22:31:57.448Z,100216.52
2019-05-18T22:34:22.958Z,100216.45
2019-05-18T22:36:48.459Z,100226.27
2019-05-18T22:39:13.943Z,100220.37
2019-05-18T22:41:39.463Z,100218.59
2019-05-18T22:44:05.053Z,100225.98
2019-05-18T22:46:30.628Z,100235.80
2019-05-18T22:48:56.128Z,100241.13
2019-05-18T22:51:21.742Z,100239.48
2019-05-18T22:53:47.285Z,100239.88
2019-05-18T22:56:12.793Z,100242.42
2019-05-18T22:58:38.284Z,100252.44
2019-05-18T23:01:03.766Z,100233.23
2019-05-18T23:03:29.257Z,100223.03
2019-05-18T23:05:54.741Z,100218.42
2019-05-18T23:08:20.215Z,100212.50
2019-05-18T23:10:45.756Z,100209.17
2019-05-18T23:13:11.491Z,100205.12
2019-05-18T23:15:37.251Z,100204.05
2019-05-18T23:18:04.871Z,100198.67
2019-05-18T23:20:30.629Z,100192.09
2019-05-18T23:22:56.116Z,100193.23
2019-05-18T23:25:21.595Z,100186.65
2019-05-18T23:27:47.081Z,100181.02
2019-05-18T23:30:12.880Z,100165.44
2019-05-18T23:32:38.382Z,100160.46
2019-05-18T23:35:03.852Z,100159.63
2019-05-18T23:37:29.425Z,100151.59
2019-05-18T23:39:54.959Z,100155.95
2019-05-18T23:42:20.433Z,100150.20
2019-05-18T23:44:45.826Z,100148.91
2019-05-18T23:47:11.317Z,100150.06
2019-05-18T23:49:36.788Z,100149.41
2019-05-18T23:52:02.296Z,100155.05
2019-05-18T23:54:27.781Z,100149.80
2019-05-18T23:56:53.252Z,100142.11
2019-05-18T23:59:18.776Z,100139.19
